Time;durP1;ratioP1;P1;durP2;ratioP2;P2;SDS_P1;SDS_P2;PMS_P1;PMS_P2;Temp;Humidity;BMP_temperature;BMP_pressure;BME280_temperature;BME280_humidity;BME280_pressure;Samples;Min_cycle;Max_cycle;Signal;HPM_P1;HPM_P2
2022/07/31 05:51:17;;;;;;;1.95;1.75;;;;;;;;;;6258790;22;21142;-81
2022/07/31 05:53:42;;;;;;;2.95;2.10;;;;;;;;;;6308619;22;20015;-81
2022/07/31 05:56:08;;;;;;;2.20;2.00;;;;;;;;;;6308667;22;20060;-83
2022/07/31 05:58:33;;;;;;;2.13;1.95;;;;;;;;;;6308653;22;20007;-81
2022/07/31 06:01:00;;;;;;;2.20;2.08;;;;;;;;;;6307121;22;20007;-82
2022/07/31 06:03:34;;;;;;;1.75;1.65;;;;;;;;;;6308859;22;20004;-84
2022/07/31 06:06:00;;;;;;;1.63;1.52;;;;;;;;;;6307422;22;20011;-85
2022/07/31 06:08:25;;;;;;;2.38;2.17;;;;;;;;;;6308755;22;20463;-82
2022/07/31 06:10:51;;;;;;;4.22;1.90;;;;;;;;;;6308553;22;20003;-82
2022/07/31 06:13:17;;;;;;;2.75;1.80;;;;;;;;;;6308339;22;20006;-83
2022/07/31 06:15:42;;;;;;;2.30;1.98;;;;;;;;;;6308855;22;20069;-81
2022/07/31 06:18:08;;;;;;;1.67;1.58;;;;;;;;;;6308520;22;20483;-83
2022/07/31 16:20:21;;;;;;;2.30;2.10;;;;;;;;;;6280744;22;20008;-87
2022/07/31 16:22:53;;;;;;;1.85;1.52;;;;;;;;;;6309746;22;20042;-87
2022/07/31 16:25:19;;;;;;;1.90;1.60;;;;;;;;;;6327195;22;20434;-88
2022/07/31 16:27:46;;;;;;;2.03;1.92;;;;;;;;;;6276990;22;20393;-87
2022/07/31 16:30:12;;;;;;;3.90;1.83;;;;;;;;;;6278595;22;20003;-87
2022/07/31 16:32:38;;;;;;;3.63;1.85;;;;;;;;;;6276898;22;20058;-87
2022/07/31 16:35:05;;;;;;;3.40;2.10;;;;;;;;;;6277374;22;20007;-89
2022/07/31 16:37:30;;;;;;;2.67;2.10;;;;;;;;;;6276606;22;20014;-87
2022/07/31 16:39:58;;;;;;;2.35;2.05;;;;;;;;;;6278069;22;20411;-87
2022/07/31 16:42:24;;;;;;;2.13;1.70;;;;;;;;;;6276766;22;20012;-89
2022/07/31 16:44:53;;;;;;;1.95;1.60;;;;;;;;;;6276861;22;20075;-88
2022/07/31 16:47:19;;;;;;;2.17;1.80;;;;;;;;;;6278225;22;20055;-87
2022/07/31 16:49:44;;;;;;;1.95;1.73;;;;;;;;;;6276901;22;20000;-88
2022/07/31 16:52:10;;;;;;;1.50;1.40;;;;;;;;;;6277551;22;20007;-87
2022/07/31 16:54:35;;;;;;;1.58;1.48;;;;;;;;;;6278618;22;20056;-88
2022/07/31 16:57:01;;;;;;;2.47;1.70;;;;;;;;;;6276765;22;20023;-86
2022/07/31 16:59:26;;;;;;;1.85;1.58;;;;;;;;;;6278194;22;20031;-87
2022/07/31 17:01:52;;;;;;;3.08;1.70;;;;;;;;;;6276510;22;20028;-87
2022/07/31 17:04:17;;;;;;;2.67;1.90;;;;;;;;;;6278021;22;20067;-86
2022/07/31 17:06:43;;;;;;;3.10;1.90;;;;;;;;;;6277982;22;20034;-87
2022/07/31 17:09:11;;;;;;;2.08;1.88;;;;;;;;;;6276514;22;20004;-87
2022/07/31 17:11:37;;;;;;;1.80;1.70;;;;;;;;;;6276579;22;19992;-86
2022/07/31 17:14:03;;;;;;;2.80;1.63;;;;;;;;;;6276272;22;20002;-87
2022/07/31 17:16:29;;;;;;;3.13;1.73;;;;;;;;;;6277491;22;20019;-88
2022/07/31 17:18:54;;;;;;;2.20;1.90;;;;;;;;;;6276857;22;20422;-85
2022/07/31 17:21:21;;;;;;;2.80;1.55;;;;;;;;;;6279376;22;20000;-83
2022/07/31 17:23:47;;;;;;;2.72;1.60;;;;;;;;;;6277345;22;20449;-84
2022/07/31 17:26:13;;;;;;;1.90;1.50;;;;;;;;;;6277905;22;20010;-81
2022/07/31 17:28:39;;;;;;;2.03;1.52;;;;;;;;;;6278889;22;20004;-87
2022/07/31 17:31:05;;;;;;;1.75;1.60;;;;;;;;;;6278627;22;20004;-89
2022/07/31 17:33:31;;;;;;;2.45;1.90;;;;;;;;;;6278297;22;20004;-83
2022/07/31 17:35:57;;;;;;;1.85;1.65;;;;;;;;;;6278133;22;20008;-83
2022/07/31 17:38:23;;;;;;;2.95;1.90;;;;;;;;;;6278461;22;20004;-84
2022/07/31 17:40:48;;;;;;;1.73;1.63;;;;;;;;;;6278074;22;20033;-84
2022/07/31 17:43:14;;;;;;;1.67;1.58;;;;;;;;;;6276358;22;20003;-84
2022/07/31 17:45:40;;;;;;;2.03;1.55;;;;;;;;;;6277608;22;20027;-82
2022/07/31 17:48:07;;;;;;;1.67;1.50;;;;;;;;;;6278143;22;20000;-84
2022/07/31 17:50:33;;;;;;;1.85;1.75;;;;;;;;;;6277680;22;20319;-82
2022/07/31 17:52:59;;;;;;;2.42;1.90;;;;;;;;;;6276230;22;20075;-83
2022/07/31 17:55:24;;;;;;;1.70;1.60;;;;;;;;;;6277740;22;20011;-83
2022/07/31 17:57:50;;;;;;;2.65;1.80;;;;;;;;;;6275967;22;20449;-83
2022/07/31 18:00:16;;;;;;;2.05;1.50;;;;;;;;;;6277698;22;20000;-84
2022/07/31 18:02:41;;;;;;;1.65;1.52;;;;;;;;;;6275973;22;20011;-82
2022/07/31 18:05:07;;;;;;;1.92;1.83;;;;;;;;;;6277656;22;20030;-84
2022/07/31 18:07:34;;;;;;;1.75;1.65;;;;;;;;;;6275360;22;20471;-82
2022/07/31 18:09:59;;;;;;;3.53;1.90;;;;;;;;;;6277759;22;20004;-85
2022/07/31 18:12:25;;;;;;;2.72;1.70;;;;;;;;;;6277790;22;20004;-86
2022/07/31 18:14:51;;;;;;;2.20;2.00;;;;;;;;;;6277544;22;20000;-82
2022/07/31 18:17:18;;;;;;;1.70;1.60;;;;;;;;;;6277496;22;20011;-87
2022/07/31 18:19:45;;;;;;;1.60;1.50;;;;;;;;;;6277524;22;20018;-87
2022/07/31 18:22:10;;;;;;;1.67;1.58;;;;;;;;;;6275987;22;20008;-83
2022/07/31 18:24:36;;;;;;;5.68;2.10;;;;;;;;;;6277571;22;19996;-83
2022/07/31 18:27:01;;;;;;;2.90;1.95;;;;;;;;;;6277135;22;20008;-84
2022/07/31 18:29:27;;;;;;;1.80;1.70;;;;;;;;;;6277450;22;20296;-82
2022/07/31 18:31:52;;;;;;;3.00;1.60;;;;;;;;;;6275896;22;19999;-82
2022/07/31 18:34:18;;;;;;;3.30;2.00;;;;;;;;;;6277521;22;20000;-82
2022/07/31 18:36:43;;;;;;;2.90;2.03;;;;;;;;;;6277184;22;20049;-83
2022/07/31 18:39:09;;;;;;;2.67;1.80;;;;;;;;;;6277473;22;20049;-82
2022/07/31 18:41:34;;;;;;;2.47;1.90;;;;;;;;;;6276634;22;20015;-83
2022/07/31 18:44:00;;;;;;;3.15;1.92;;;;;;;;;;6275717;22;20003;-83
2022/07/31 18:46:26;;;;;;;2.97;2.15;;;;;;;;;;6277200;22;20362;-84
2022/07/31 18:48:52;;;;;;;2.67;1.92;;;;;;;;;;6277603;22;20086;-82
2022/07/31 18:51:18;;;;;;;2.42;2.22;;;;;;;;;;6277345;22;19995;-82
2022/07/31 18:53:43;;;;;;;2.90;2.70;;;;;;;;;;6277203;22;20010;-83
2022/07/31 18:56:09;;;;;;;2.90;1.90;;;;;;;;;;6277265;22;20322;-83
2022/07/31 18:58:34;;;;;;;2.60;2.10;;;;;;;;;;6277224;22;20407;-82
2022/07/31 19:01:00;;;;;;;1.98;1.80;;;;;;;;;;6277142;22;20403;-83
2022/07/31 19:03:28;;;;;;;1.95;1.75;;;;;;;;;;6277493;22;20006;-82
2022/07/31 19:05:54;;;;;;;3.42;1.80;;;;;;;;;;6277107;22;20008;-83
2022/07/31 19:08:20;;;;;;;2.30;2.10;;;;;;;;;;6277342;22;20010;-83
2022/07/31 19:10:47;;;;;;;2.20;1.85;;;;;;;;;;6276995;22;20002;-82
2022/07/31 19:13:14;;;;;;;2.80;2.42;;;;;;;;;;6277263;22;20003;-83
2022/07/31 19:15:39;;;;;;;2.47;2.28;;;;;;;;;;6277465;22;20007;-81
2022/07/31 19:18:05;;;;;;;4.70;2.10;;;;;;;;;;6277771;22;20080;-82
2022/07/31 19:20:31;;;;;;;2.17;1.98;;;;;;;;;;6276961;22;20011;-82
2022/07/31 19:22:57;;;;;;;4.38;2.28;;;;;;;;;;6277535;22;20007;-83
2022/07/31 19:25:22;;;;;;;2.50;2.30;;;;;;;;;;6277211;22;19999;-82
2022/07/31 19:27:48;;;;;;;4.47;2.38;;;;;;;;;;6277443;22;20034;-81
2022/07/31 19:30:14;;;;;;;3.53;2.10;;;;;;;;;;6277300;22;20373;-83
2022/07/31 19:32:40;;;;;;;1.90;1.80;;;;;;;;;;6276992;22;19999;-82
2022/07/31 19:35:06;;;;;;;4.35;2.58;;;;;;;;;;6276864;22;20004;-83
2022/07/31 19:37:32;;;;;;;2.75;2.28;;;;;;;;;;6277074;22;20007;-83
2022/07/31 19:39:57;;;;;;;2.40;2.20;;;;;;;;;;6278977;22;20007;-82
2022/07/31 19:42:22;;;;;;;2.50;2.13;;;;;;;;;;6278932;22;20007;-83
2022/07/31 19:44:48;;;;;;;2.95;1.92;;;;;;;;;;6277312;22;20512;-83
2022/07/31 19:47:13;;;;;;;4.40;2.33;;;;;;;;;;6277112;22;20020;-82
2022/07/31 19:49:43;;;;;;;2.30;2.10;;;;;;;;;;6278571;22;20418;-82
2022/07/31 19:52:09;;;;;;;4.30;2.33;;;;;;;;;;6279104;22;20007;-82
2022/07/31 19:54:34;;;;;;;2.42;2.22;;;;;;;;;;6278792;22;20046;-82
2022/07/31 19:56:59;;;;;;;3.50;2.30;;;;;;;;;;6278462;22;20007;-83
2022/07/31 19:59:25;;;;;;;3.50;2.75;;;;;;;;;;6278814;22;20427;-84
2022/07/31 20:01:50;;;;;;;2.55;2.33;;;;;;;;;;6278943;22;20429;-82
2022/07/31 20:04:16;;;;;;;2.40;2.20;;;;;;;;;;6278804;22;20333;-83
2022/07/31 20:06:41;;;;;;;2.67;2.47;;;;;;;;;;6278656;22;20007;-81
2022/07/31 20:09:07;;;;;;;2.58;2.38;;;;;;;;;;6278946;22;20431;-82
2022/07/31 20:11:42;;;;;;;;;;;;;;;;;;;;;
2022/07/31 20:14:08;;;;;;;2.50;2.30;;;;;;;;;;6279407;22;20078;-82
2022/07/31 20:16:33;;;;;;;3.90;2.70;;;;;;;;;;6278864;22;20371;-82
2022/07/31 20:19:00;;;;;;;3.10;2.25;;;;;;;;;;6278448;22;20004;-82
2022/07/31 20:21:25;;;;;;;4.20;2.30;;;;;;;;;;6276987;22;20003;-83
2022/07/31 20:23:51;;;;;;;3.38;2.25;;;;;;;;;;6276908;22;20011;-83
2022/07/31 20:26:16;;;;;;;2.53;2.13;;;;;;;;;;6278524;22;20031;-82
2022/07/31 20:28:43;;;;;;;2.60;2.40;;;;;;;;;;6276980;22;20003;-82
2022/07/31 20:31:09;;;;;;;2.83;2.20;;;;;;;;;;6278628;22;20008;-82
2022/07/31 20:33:34;;;;;;;2.42;1.90;;;;;;;;;;6278552;22;20000;-83
2022/07/31 20:36:00;;;;;;;3.53;2.55;;;;;;;;;;6278466;22;20023;-83
2022/07/31 20:38:25;;;;;;;3.47;2.42;;;;;;;;;;6278625;22;20423;-82
2022/07/31 20:40:53;;;;;;;2.13;1.92;;;;;;;;;;6278259;22;20004;-82
2022/07/31 20:43:18;;;;;;;3.50;2.30;;;;;;;;;;6278749;22;20078;-83
2022/07/31 20:45:47;;;;;;;2.97;2.03;;;;;;;;;;6278256;22;20375;-83
2022/07/31 20:48:14;;;;;;;2.17;1.98;;;;;;;;;;6278349;22;20000;-82
2022/07/31 20:50:39;;;;;;;2.38;2.22;;;;;;;;;;6277968;22;20027;-82
2022/07/31 20:53:05;;;;;;;2.10;1.90;;;;;;;;;;6278495;22;20007;-82
2022/07/31 20:55:32;;;;;;;1.98;1.88;;;;;;;;;;6278215;22;20015;-82
2022/07/31 20:57:58;;;;;;;2.55;2.35;;;;;;;;;;6278638;22;20061;-82
2022/07/31 21:00:24;;;;;;;2.65;2.45;;;;;;;;;;6278438;22;20000;-83
2022/07/31 21:02:50;;;;;;;2.58;2.38;;;;;;;;;;6278764;22;19999;-82
2022/07/31 21:05:16;;;;;;;2.33;2.13;;;;;;;;;;6278247;22;20026;-84
2022/07/31 21:07:41;;;;;;;3.13;2.72;;;;;;;;;;6278107;22;20067;-83
2022/07/31 21:10:07;;;;;;;2.60;2.40;;;;;;;;;;6278171;22;20030;-85
2022/07/31 21:12:32;;;;;;;3.03;2.15;;;;;;;;;;6278332;22;19996;-83
2022/07/31 21:14:59;;;;;;;2.97;2.40;;;;;;;;;;6275973;22;20008;-86
2022/07/31 21:17:25;;;;;;;2.63;2.20;;;;;;;;;;6278141;22;20011;-84
2022/07/31 21:19:51;;;;;;;2.28;2.08;;;;;;;;;;6278110;22;20043;-84
2022/07/31 21:22:17;;;;;;;2.88;2.20;;;;;;;;;;6276689;22;20081;-83
2022/07/31 21:24:43;;;;;;;3.05;2.25;;;;;;;;;;6278180;22;20034;-83
2022/07/31 21:27:10;;;;;;;2.25;2.05;;;;;;;;;;6277888;22;20490;-86
2022/07/31 21:29:36;;;;;;;3.33;2.88;;;;;;;;;;6278399;22;20407;-83
2022/07/31 21:32:01;;;;;;;2.40;2.20;;;;;;;;;;6278584;22;19996;-84
2022/07/31 21:34:27;;;;;;;3.30;3.00;;;;;;;;;;6278192;22;20003;-84
2022/07/31 21:36:53;;;;;;;3.83;3.28;;;;;;;;;;6278505;22;20087;-84
2022/07/31 21:39:19;;;;;;;3.38;3.00;;;;;;;;;;6278407;22;20007;-84
2022/07/31 21:41:44;;;;;;;5.18;3.65;;;;;;;;;;6276705;22;19999;-83
2022/07/31 21:44:11;;;;;;;3.38;2.90;;;;;;;;;;6277825;22;20029;-84
2022/07/31 21:46:39;;;;;;;3.95;2.67;;;;;;;;;;6277832;22;20041;-84
2022/07/31 21:49:04;;;;;;;4.15;3.30;;;;;;;;;;6278453;22;20011;-84
2022/07/31 21:51:31;;;;;;;3.05;2.75;;;;;;;;;;6278325;22;19999;-84
2022/07/31 21:53:57;;;;;;;3.40;2.70;;;;;;;;;;6276315;22;20004;-84
2022/07/31 21:56:22;;;;;;;3.45;3.13;;;;;;;;;;6278198;22;20000;-84
2022/07/31 21:58:48;;;;;;;5.15;3.45;;;;;;;;;;6276488;22;20011;-84
2022/07/31 22:01:26;;;;;;;;;;;;;;;;;;;;;
2022/07/31 22:03:52;;;;;;;4.82;2.70;;;;;;;;;;6279635;22;20070;-86
2022/07/31 22:09:02;;;;;;;4.68;2.78;;;;;;;;;;6278015;22;20099;-83
2022/07/31 22:11:29;;;;;;;2.40;2.13;;;;;;;;;;6277612;22;20031;-84
2022/07/31 22:13:54;;;;;;;3.17;2.80;;;;;;;;;;6277610;22;20082;-83
2022/07/31 22:16:20;;;;;;;3.42;2.50;;;;;;;;;;6277489;22;20042;-84
2022/07/31 22:18:45;;;;;;;3.13;2.83;;;;;;;;;;6277857;22;20096;-83
2022/07/31 22:21:11;;;;;;;2.92;2.72;;;;;;;;;;6277415;22;20006;-83
2022/07/31 22:23:37;;;;;;;2.70;2.50;;;;;;;;;;6275831;22;20000;-83
2022/07/31 22:26:03;;;;;;;2.50;2.30;;;;;;;;;;6277318;22;20042;-83
2022/07/31 22:28:28;;;;;;;2.42;2.13;;;;;;;;;;6277434;22;20322;-83
2022/07/31 22:30:55;;;;;;;2.70;2.50;;;;;;;;;;6277389;22;20331;-83
2022/07/31 22:33:21;;;;;;;2.70;2.50;;;;;;;;;;6277285;22;19995;-83
2022/07/31 22:35:56;;;;;;;2.65;2.45;;;;;;;;;;6277433;22;20011;-84
2022/07/31 22:38:23;;;;;;;3.22;2.92;;;;;;;;;;6277491;22;20077;-84
2022/07/31 22:40:49;;;;;;;2.67;2.47;;;;;;;;;;6277367;22;20003;-83
2022/07/31 22:43:15;;;;;;;2.20;2.00;;;;;;;;;;6277289;22;20019;-83
2022/07/31 22:45:40;;;;;;;3.72;2.53;;;;;;;;;;6277106;22;20071;-83
2022/07/31 22:48:08;;;;;;;3.60;2.28;;;;;;;;;;6277182;22;20025;-83
2022/07/31 22:50:34;;;;;;;5.15;2.90;;;;;;;;;;6277569;22;20435;-83
2022/07/31 22:52:59;;;;;;;3.92;3.05;;;;;;;;;;6277304;22;20010;-83
2022/07/31 22:55:37;;;;;;;;;;;;;;;;;;;;;
2022/07/31 22:58:03;;;;;;;6.05;3.70;;;;;;;;;;6272207;22;20083;-83
2022/07/31 23:00:29;;;;;;;3.10;2.90;;;;;;;;;;6277236;22;20027;-83
2022/07/31 23:02:55;;;;;;;2.53;2.33;;;;;;;;;;6277194;22;19999;-83
2022/07/31 23:05:21;;;;;;;3.55;3.25;;;;;;;;;;6277147;22;20004;-83
2022/07/31 23:07:46;;;;;;;3.10;2.88;;;;;;;;;;6277225;22;20004;-84
2022/07/31 23:10:11;;;;;;;3.22;2.30;;;;;;;;;;6277278;22;20003;-84
2022/07/31 23:12:37;;;;;;;3.50;2.70;;;;;;;;;;6275408;22;20486;-83
2022/07/31 23:15:04;;;;;;;3.05;2.78;;;;;;;;;;6276857;22;20493;-84
2022/07/31 23:17:29;;;;;;;5.68;3.40;;;;;;;;;;6277400;22;20138;-84
2022/07/31 23:19:55;;;;;;;3.78;2.72;;;;;;;;;;6276888;22;20411;-83
2022/07/31 23:22:22;;;;;;;3.10;2.80;;;;;;;;;;6277388;22;20027;-83
2022/07/31 23:24:50;;;;;;;3.10;2.90;;;;;;;;;;6277043;22;20000;-83
2022/07/31 23:27:15;;;;;;;3.00;2.80;;;;;;;;;;6275524;22;20338;-83
2022/07/31 23:29:41;;;;;;;3.88;2.90;;;;;;;;;;6276978;22;20070;-83
2022/07/31 23:32:06;;;;;;;2.80;2.60;;;;;;;;;;6276930;22;20007;-83
2022/07/31 23:34:32;;;;;;;3.08;2.72;;;;;;;;;;6277005;22;20026;-83
2022/07/31 23:36:58;;;;;;;2.97;2.47;;;;;;;;;;6276870;22;20000;-83
2022/07/31 23:39:24;;;;;;;3.30;2.80;;;;;;;;;;6277192;22;20027;-83
2022/07/31 23:44:33;;;;;;;3.25;2.85;;;;;;;;;;6277033;22;20092;-83
2022/07/31 23:46:58;;;;;;;3.42;2.90;;;;;;;;;;6276781;22;20349;-83
2022/07/31 23:49:24;;;;;;;3.45;3.20;;;;;;;;;;6277308;22;20075;-84
2022/07/31 23:51:49;;;;;;;3.08;2.60;;;;;;;;;;6276883;22;20000;-83
2022/07/31 23:54:15;;;;;;;3.22;2.90;;;;;;;;;;6277232;22;20382;-84
2022/07/31 23:56:41;;;;;;;3.65;3.00;;;;;;;;;;6277182;22;20008;-83
2022/07/31 23:59:07;;;;;;;3.90;3.15;;;;;;;;;;6276989;22;20419;-83
